Aérodrome :
LOGIN :

S'inscrire | Disclaimer

   EN    FR    IT 

 










Légende :    VFR   VFR Marginal   IFR   IFR Intensif   IFR Très Intensif
Visi : 
Plafond : 
>= 8 km
>= 3000ft
5 à 8 km
1000 à 3000 ft
1500m à 5 km
500 à 1000 ft
800 à 1500m
200 à 500 ft
< 800m
< 200 ft
Symboles :   Orages  Brouillard  Fortes neiges  Fortes précipitations  Vent > 20 kt
SIGMETs :   Divers  Orages  Givrage  Turbulence  Onde Orograph.  Cendres Volcan.






- Altitude de l'aérodrome : 47 ft
- Code IATA : BDS


LIBR - Casale Arpt. Brindisi

DERNIER METAR :
  • 171450Z 12009KT 9999 BKN030 19/16 Q1010

METARs EXPIRÉS :
  • 171420Z 15013KT 9999 SCT030 21/15 Q1009
  • 171350Z 17017KT 9999 SCT020 SCT035 21/12 Q1009
  • 171320Z 16016KT 9999 SCT020 SCT035 22/13 Q1009
  • 171250Z 17015KT 9999 FEW015 SCT030 22/14 Q1008
  • 171220Z 13012KT 100V160 9999 FEW015 SCT030 20/16 Q1009

TAF TAF LIBR
Valide du 17 à 12h jusqu'au 18 à 12h UTC


171100Z 1712/1812 15018G30KT 9999 SCT030
TEMPO 1712/1721 4000 TSRA
BECMG 1714/1716 22013KT



MET'MAP, la Météo Aéronautique d'un coup d'oeil ! - Copyright ORBIFLY Décembre 2007 - Disclaimer

ORBIFLY MET'MAP TEAM :

Programmation & Développement : Alexandra Zaïnal
Conception & Développement : Baudouin d'Aumeries
Co-Programmation & Développement : Marc-Olivier Méhu
Soutien technique & logistique : Manuel Goepfert

Contact : metmap@orbifly.com




SOURCES & CREDITS :

   NOAA